Time;durP1;ratioP1;P1;durP2;ratioP2;P2;SDS_P1;SDS_P2;PMS_P1;PMS_P2;Temp;Humidity;BMP_temperature;BMP_pressure;BME280_temperature;BME280_humidity;BME280_pressure;Samples;Min_cycle;Max_cycle;Signal;HPM_P1;HPM_P2
2020/12/19 00:01:39;;;;;;;37.03;14.65;;;;;;;4.83;100.00;102268.58;1779489;80;21096;-61
2020/12/19 00:04:06;;;;;;;33.08;15.23;;;;;;;4.84;100.00;102261.48;1779347;80;21491;-62
2020/12/19 00:06:35;;;;;;;33.42;15.90;;;;;;;4.83;100.00;102260.60;1779296;80;21079;-61
2020/12/19 00:09:03;;;;;;;36.25;15.45;;;;;;;4.82;100.00;102263.23;1779374;80;21132;-62
2020/12/19 00:11:31;;;;;;;37.70;15.60;;;;;;;4.77;100.00;102263.19;1764450;81;21446;-61
2020/12/19 00:13:58;;;;;;;30.95;14.58;;;;;;;4.75;100.00;102262.24;1779227;80;21074;-62
2020/12/19 00:16:29;;;;;;;37.45;15.75;;;;;;;4.69;100.00;102263.08;1779434;80;20964;-62
2020/12/19 00:18:55;;;;;;;36.53;14.68;;;;;;;4.66;100.00;102264.37;1779256;80;21031;-62
2020/12/19 00:21:23;;;;;;;38.00;14.87;;;;;;;4.61;100.00;102262.51;1764372;81;21149;-61
2020/12/19 00:23:50;;;;;;;31.33;13.58;;;;;;;4.56;100.00;102264.67;1779413;80;22241;-61
2020/12/19 00:26:19;;;;;;;29.95;13.62;;;;;;;4.54;100.00;102273.06;1764247;81;21110;-61
2020/12/19 00:28:46;;;;;;;31.37;13.70;;;;;;;4.53;100.00;102259.32;1779418;80;21071;-62
2020/12/19 00:31:14;;;;;;;31.95;13.78;;;;;;;4.54;100.00;102261.10;1779324;80;21123;-61
2020/12/19 00:33:41;;;;;;;32.35;13.32;;;;;;;4.55;100.00;102264.64;1779397;80;21115;-61
2020/12/19 00:36:10;;;;;;;28.55;13.28;;;;;;;4.54;100.00;102265.51;1766426;80;21389;-61
2020/12/19 00:38:37;;;;;;;31.97;13.25;;;;;;;4.53;100.00;102260.65;1838918;78;21165;-61
2020/12/19 00:41:05;;;;;;;28.67;12.68;;;;;;;4.52;100.00;102260.61;1789656;80;21485;-61
2020/12/19 00:43:32;;;;;;;27.25;12.30;;;;;;;4.50;100.00;102256.59;1838960;77;21500;-61
2020/12/19 00:46:00;;;;;;;31.35;13.00;;;;;;;4.48;100.00;102253.02;1839114;77;21161;-59
2020/12/19 00:48:27;;;;;;;29.50;12.47;;;;;;;4.47;100.00;102245.92;1842108;77;21355;-62
2020/12/19 00:50:55;;;;;;;30.60;13.53;;;;;;;4.44;100.00;102241.91;1795425;80;21122;-61
2020/12/19 00:53:23;;;;;;;28.15;11.73;;;;;;;4.41;100.00;102240.53;1842064;77;21114;-62
2020/12/19 00:55:50;;;;;;;27.50;11.20;;;;;;;4.39;100.00;102230.33;1842080;77;21134;-61
2020/12/19 00:58:18;;;;;;;31.70;13.53;;;;;;;4.38;100.00;102229.87;1795449;80;21085;-62
2020/12/19 01:00:48;;;;;;;27.02;12.35;;;;;;;4.35;100.00;102233.81;1842081;77;21356;-61
2020/12/19 01:03:16;;;;;;;26.27;12.07;;;;;;;4.36;100.00;102234.27;1795330;80;21086;-61
2020/12/19 01:05:43;;;;;;;27.02;12.13;;;;;;;4.35;100.00;102237.34;1842023;77;21099;-61
2020/12/19 01:08:11;;;;;;;26.90;12.13;;;;;;;4.34;100.00;102229.38;1795429;80;21149;-62
2020/12/19 01:10:38;;;;;;;25.50;11.45;;;;;;;4.35;100.00;102231.16;1842091;77;21043;-62
2020/12/19 01:13:06;;;;;;;26.73;11.25;;;;;;;4.33;100.00;102224.94;1795502;80;22298;-62
2020/12/19 01:15:33;;;;;;;25.25;11.75;;;;;;;4.35;100.00;102229.83;1841997;77;20992;-61
2020/12/19 01:18:01;;;;;;;24.63;11.45;;;;;;;4.33;100.00;102222.28;1795409;80;21109;-62
2020/12/19 01:20:32;;;;;;;28.02;11.80;;;;;;;4.32;100.00;102228.46;1842041;77;21083;-61
2020/12/19 01:23:03;;;;;;;26.90;11.73;;;;;;;4.25;100.00;102221.70;1795601;80;21118;-61
2020/12/19 01:25:30;;;;;;;27.48;11.50;;;;;;;4.26;100.00;102226.15;1842040;77;21358;-60
2020/12/19 01:27:58;;;;;;;28.60;11.73;;;;;;;4.26;100.00;102217.30;1795509;80;21062;-61
2020/12/19 01:30:25;;;;;;;24.12;10.75;;;;;;;4.26;100.00;102217.30;1842164;77;21051;-60
2020/12/19 01:32:53;;;;;;;24.47;10.98;;;;;;;4.23;100.00;102219.47;1842143;77;21205;-61
2020/12/19 01:35:22;;;;;;;23.25;10.35;;;;;;;4.22;100.00;102220.34;1792238;80;21239;-62
2020/12/19 01:37:50;;;;;;;22.77;10.32;;;;;;;4.21;100.00;102219.88;1831273;77;21363;-61
2020/12/19 01:40:18;;;;;;;21.30;10.13;;;;;;;4.21;100.00;102219.88;1795594;79;21587;-60
2020/12/19 01:42:46;;;;;;;26.90;11.50;;;;;;;4.21;100.00;102209.72;1812214;79;21106;-61
2020/12/19 01:45:14;;;;;;;24.82;10.13;;;;;;;4.20;100.00;102219.42;1811959;79;21142;-61
2020/12/19 01:47:41;;;;;;;24.92;10.90;;;;;;;4.19;100.00;102222.95;1811845;79;21118;-61
2020/12/19 01:50:09;;;;;;;31.55;11.38;;;;;;;4.17;100.00;102219.39;1811857;79;21440;-61
2020/12/19 01:52:36;;;;;;;25.85;10.95;;;;;;;4.19;100.00;102218.06;1811774;79;21071;-62
2020/12/19 01:55:04;;;;;;;26.80;11.08;;;;;;;4.21;100.00;102213.70;1811807;79;21079;-62
2020/12/19 01:57:32;;;;;;;26.57;11.10;;;;;;;4.22;100.00;102219.02;1811785;79;21090;-61
2020/12/19 02:00:00;;;;;;;27.65;10.53;;;;;;;4.22;100.00;102212.83;1811852;79;21034;-60
2020/12/19 02:02:27;;;;;;;25.23;11.10;;;;;;;4.19;100.00;102209.68;1811771;79;21383;-62
2020/12/19 02:04:55;;;;;;;25.35;11.28;;;;;;;4.18;100.00;102209.22;1811797;79;21059;-61
2020/12/19 02:07:23;;;;;;;27.55;11.53;;;;;;;4.14;100.00;102198.11;1811774;79;21130;-62
2020/12/19 02:09:51;;;;;;;28.60;12.33;;;;;;;4.11;100.00;102200.72;1811834;79;21134;-61
2020/12/19 02:12:20;;;;;;;30.02;11.30;;;;;;;4.09;100.00;102202.01;1811754;79;21066;-61
2020/12/19 02:14:48;;;;;;;28.02;11.78;;;;;;;4.09;100.00;102201.09;1811874;79;21529;-61
2020/12/19 02:17:16;;;;;;;29.60;11.75;;;;;;;4.08;100.00;102196.24;1811810;79;21052;-61
2020/12/19 02:19:44;;;;;;;32.75;13.25;;;;;;;4.08;100.00;102194.91;1811840;79;21083;-62
2020/12/19 02:22:12;;;;;;;31.15;11.95;;;;;;;4.12;100.00;102195.86;1811787;79;21102;-61
2020/12/19 02:24:40;;;;;;;28.35;12.43;;;;;;;4.13;100.00;102200.30;1811838;79;21467;-61
2020/12/19 02:27:07;;;;;;;31.00;12.65;;;;;;;4.11;100.00;102199.39;1811840;79;21233;-61
2020/12/19 02:29:36;;;;;;;31.75;12.18;;;;;;;4.09;100.00;102202.42;1811824;79;21708;-62
2020/12/19 02:32:04;;;;;;;31.05;12.63;;;;;;;4.08;100.00;102198.89;1811847;79;21153;-61
2020/12/19 02:34:32;;;;;;;28.23;12.00;;;;;;;4.09;100.00;102202.01;1811699;79;21562;-62
2020/12/19 02:36:59;;;;;;;31.30;12.55;;;;;;;4.11;100.00;102200.72;1793989;79;21603;-62
2020/12/19 02:39:27;;;;;;;29.15;12.03;;;;;;;4.10;100.00;102206.45;1802144;79;21197;-61
2020/12/19 02:41:54;;;;;;;30.52;11.73;;;;;;;4.09;100.00;102203.75;1770731;80;21129;-61
2020/12/19 02:44:22;;;;;;;27.30;11.10;;;;;;;4.10;100.00;102205.57;1802090;79;21126;-62
2020/12/19 02:46:50;;;;;;;27.07;11.12;;;;;;;4.11;100.00;102210.01;1800765;79;21094;-61
2020/12/19 02:49:18;;;;;;;29.42;11.53;;;;;;;4.10;100.00;102207.77;1765358;81;21046;-62
2020/12/19 02:51:46;;;;;;;29.00;11.73;;;;;;;4.10;100.00;102212.20;1796453;79;21368;-61
2020/12/19 02:54:14;;;;;;;25.10;11.15;;;;;;;4.09;100.00;102219.68;1765286;81;21126;-62
2020/12/19 02:56:41;;;;;;;26.90;10.63;;;;;;;4.10;100.00;102222.83;1796465;79;21142;-60
2020/12/19 02:59:09;;;;;;;30.23;12.03;;;;;;;4.09;100.00;102219.68;1765298;81;21062;-62
2020/12/19 03:01:36;;;;;;;27.02;11.48;;;;;;;4.09;100.00;102228.55;1796493;79;21042;-61
2020/12/19 03:04:04;;;;;;;28.67;12.13;;;;;;;4.10;100.00;102223.70;1765382;81;21700;-61
2020/12/19 03:06:33;;;;;;;27.30;11.75;;;;;;;4.16;100.00;102221.58;1796345;79;21126;-61
2020/12/19 03:09:03;;;;;;;31.82;13.45;;;;;;;4.20;100.00;102217.19;1765424;81;21150;-61
2020/12/19 03:11:30;;;;;;;27.25;11.68;;;;;;;4.20;100.00;102222.08;1796519;79;21590;-60
2020/12/19 03:13:58;;;;;;;34.45;13.80;;;;;;;4.20;100.00;102219.42;1765339;81;21055;-61
2020/12/19 03:16:26;;;;;;;31.10;12.80;;;;;;;4.22;100.00;102219.46;1796528;79;21198;-61
2020/12/19 03:18:53;;;;;;;32.63;14.15;;;;;;;4.24;99.95;102213.28;1765274;81;21162;-61
2020/12/19 03:21:21;;;;;;;35.08;14.60;;;;;;;4.23;99.46;102215.48;1796482;79;21114;-60
2020/12/19 03:23:49;;;;;;;28.70;12.98;;;;;;;4.22;99.18;102217.69;1765303;81;21505;-62
2020/12/19 03:26:17;;;;;;;33.67;14.18;;;;;;;4.23;98.90;102212.83;1796765;79;21194;-61
2020/12/19 03:28:45;;;;;;;33.95;13.83;;;;;;;4.26;98.76;102213.33;1765485;81;21694;-61
2020/12/19 03:31:13;;;;;;;31.57;13.53;;;;;;;4.25;98.58;102206.23;1796591;79;21114;-61
2020/12/19 03:33:40;;;;;;;33.23;14.40;;;;;;;4.26;98.49;102206.23;1765432;81;21149;-62
2020/12/19 03:36:08;;;;;;;27.85;12.80;;;;;;;4.28;98.24;102204.94;1794186;79;21137;-61
2020/12/19 03:38:36;;;;;;;29.25;13.20;;;;;;;4.29;97.86;102204.95;1766989;81;21127;-61
2020/12/19 03:41:04;;;;;;;27.87;12.33;;;;;;;4.30;97.70;102208.51;1767121;81;21392;-61
2020/12/19 03:43:32;;;;;;;28.52;12.63;;;;;;;4.30;97.26;102200.09;1766934;81;21110;-62
2020/12/19 03:45:59;;;;;;;31.02;12.90;;;;;;;4.33;96.49;102206.34;1767044;81;21060;-61
2020/12/19 03:48:27;;;;;;;32.15;14.15;;;;;;;4.29;96.00;102204.07;1767014;80;21076;-61
2020/12/19 03:50:55;;;;;;;31.15;13.35;;;;;;;4.29;95.93;102200.96;1767129;81;21163;-61
2020/12/19 03:53:23;;;;;;;36.45;14.68;;;;;;;4.28;95.83;102194.32;1767133;81;21417;-60
2020/12/19 03:55:50;;;;;;;35.28;15.28;;;;;;;4.29;95.89;102186.36;1766940;81;21151;-62
2020/12/19 03:58:19;;;;;;;32.75;14.80;;;;;;;4.30;95.86;102194.78;1767036;81;21064;-61
2020/12/19 04:00:46;;;;;;;30.57;14.07;;;;;;;4.29;95.90;102196.98;1766989;81;21056;-61
2020/12/19 04:03:14;;;;;;;40.67;15.43;;;;;;;4.27;95.90;102202.70;1767141;81;21103;-61
2020/12/19 04:05:41;;;;;;;30.12;14.70;;;;;;;4.24;95.94;102201.34;1766957;81;21394;-61
2020/12/19 04:08:09;;;;;;;31.10;14.18;;;;;;;4.22;95.85;102212.38;1767025;81;21068;-61
2020/12/19 04:10:37;;;;;;;39.00;15.05;;;;;;;4.21;95.83;102205.73;1767023;81;21072;-62
2020/12/19 04:13:04;;;;;;;33.67;14.73;;;;;;;4.21;95.69;102205.73;1766996;81;21189;-61
2020/12/19 04:15:31;;;;;;;31.75;15.08;;;;;;;4.16;95.49;102205.66;1767030;81;21135;-62
2020/12/19 04:17:59;;;;;;;37.13;16.60;;;;;;;4.10;95.66;102200.27;1767097;81;21378;-62
2020/12/19 04:20:27;;;;;;;35.30;15.18;;;;;;;4.08;95.86;102204.62;1766986;81;21095;-61
2020/12/19 04:22:54;;;;;;;35.03;15.32;;;;;;;4.04;95.94;102194.84;1767062;81;21059;-61
2020/12/19 04:25:22;;;;;;;34.88;15.30;;;;;;;4.00;95.97;102205.86;1767000;81;21119;-61
2020/12/19 04:27:49;;;;;;;35.00;16.05;;;;;;;3.98;96.14;102200.96;1767019;81;21079;-63
2020/12/19 04:30:17;;;;;;;30.37;13.40;;;;;;;3.94;96.42;102205.32;1767117;81;21157;-61
2020/12/19 04:32:44;;;;;;;38.28;15.78;;;;;;;3.93;96.77;102204.86;1766936;81;21135;-62
2020/12/19 04:35:13;;;;;;;32.55;14.50;;;;;;;3.89;97.00;102199.47;1767086;81;21379;-63
2020/12/19 04:37:41;;;;;;;35.03;15.38;;;;;;;3.87;97.56;102209.63;1768517;81;21227;-61
2020/12/19 04:40:08;;;;;;;33.35;15.23;;;;;;;3.88;97.95;102215.84;1769053;81;21198;-61
2020/12/19 04:42:36;;;;;;;34.85;14.70;;;;;;;3.91;98.29;102214.98;1768992;81;21475;-61
2020/12/19 04:45:04;;;;;;;31.68;10.98;;;;;;;3.93;98.36;102215.89;1768877;81;21178;-62
2020/12/19 04:47:32;;;;;;;26.48;11.03;;;;;;;3.90;98.71;102236.66;1772030;79;21222;-61
2020/12/19 04:50:00;;;;;;;35.95;12.35;;;;;;;3.76;98.55;102234.20;1785136;80;21114;-61
2020/12/19 04:52:28;;;;;;;34.05;11.68;;;;;;;3.60;98.99;102231.72;1785170;80;21150;-61
2020/12/19 04:54:56;;;;;;;32.75;12.05;;;;;;;3.49;99.33;102238.16;1762376;81;21363;-61
2020/12/19 04:57:23;;;;;;;35.48;12.37;;;;;;;3.43;99.72;102233.20;1785089;80;21150;-62
2020/12/19 04:59:51;;;;;;;32.73;10.70;;;;;;;3.40;100.00;102239.75;1785040;80;21142;-61
2020/12/19 05:02:19;;;;;;;25.75;9.75;;;;;;;3.38;100.00;102241.48;1762439;81;21079;-60
2020/12/19 05:04:49;;;;;;;24.92;10.10;;;;;;;3.33;100.00;102248.91;1762354;81;21075;-62
2020/12/19 05:07:19;;;;;;;27.40;11.35;;;;;;;3.28;100.00;102251.47;1784834;80;21704;-61
2020/12/19 05:09:46;;;;;;;26.57;10.68;;;;;;;3.23;100.00;102247.84;1762295;81;21051;-61
2020/12/19 05:12:14;;;;;;;27.65;11.63;;;;;;;3.21;100.00;102247.79;1785168;80;21138;-61
2020/12/19 05:14:41;;;;;;;32.48;13.22;;;;;;;3.21;100.00;102246.47;1762310;80;21171;-61
2020/12/19 05:17:09;;;;;;;33.08;13.45;;;;;;;3.20;100.00;102243.77;1785127;80;21039;-61
2020/12/19 05:19:37;;;;;;;27.13;12.35;;;;;;;3.17;100.00;102254.31;1762399;81;21377;-61
2020/12/19 05:22:05;;;;;;;32.65;12.65;;;;;;;3.15;100.00;102255.18;1785054;80;21134;-62
2020/12/19 05:24:36;;;;;;;26.45;11.90;;;;;;;3.14;100.00;102253.39;1785136;79;21135;-61
2020/12/19 05:27:04;;;;;;;30.52;12.58;;;;;;;3.15;100.00;102256.51;1762255;81;21137;-62
2020/12/19 05:29:34;;;;;;;30.55;13.18;;;;;;;3.14;100.00;102261.34;1785079;80;21158;-61
2020/12/19 05:32:01;;;;;;;32.42;12.82;;;;;;;3.14;100.00;102257.37;1762360;80;21342;-61
2020/12/19 05:34:29;;;;;;;28.90;12.58;;;;;;;3.18;100.00;102260.08;1785107;80;21067;-62
2020/12/19 05:36:57;;;;;;;32.73;12.70;;;;;;;3.19;100.00;102256.56;1761258;81;21084;-61
2020/12/19 05:39:24;;;;;;;28.42;12.85;;;;;;;3.18;100.00;102257.42;1759710;81;21119;-62
2020/12/19 05:41:52;;;;;;;34.95;13.68;;;;;;;3.19;100.00;102263.19;1759618;81;21128;-62
2020/12/19 05:44:21;;;;;;;29.23;13.15;;;;;;;3.21;100.00;102268.13;1759764;81;23608;-62
2020/12/19 05:46:49;;;;;;;24.98;11.57;;;;;;;3.23;100.00;102271.25;1759499;81;21104;-62
2020/12/19 05:49:18;;;;;;;28.98;13.32;;;;;;;3.26;100.00;102278.38;1763096;79;21083;-61
2020/12/19 05:51:45;;;;;;;25.97;12.68;;;;;;;3.25;100.00;102276.59;1764067;80;21087;-62
2020/12/19 05:54:14;;;;;;;34.25;13.75;;;;;;;3.25;100.00;102283.22;1764002;81;21156;-61
2020/12/19 05:56:46;;;;;;;24.65;11.45;;;;;;;3.25;100.00;102280.12;1764020;80;21147;-61
2020/12/19 05:59:16;;;;;;;27.32;12.28;;;;;;;3.28;100.00;102281.95;1763885;81;21085;-61
2020/12/19 06:01:45;;;;;;;26.07;12.07;;;;;;;3.28;100.00;102289.91;1763982;80;21131;-62
2020/12/19 06:04:13;;;;;;;33.10;12.90;;;;;;;3.28;100.00;102289.91;1763886;81;21139;-62
2020/12/19 06:06:46;;;;;;;24.40;11.80;;;;;;;3.26;100.00;102294.28;1763969;81;21147;-62
2020/12/19 06:09:14;;;;;;;27.00;12.60;;;;;;;3.26;100.00;102298.26;1763959;80;21204;-62
2020/12/19 06:12:02;;;;;;;27.90;12.70;;;;;;;3.26;100.00;102292.95;1763870;80;21013;-61
2020/12/19 06:14:33;;;;;;;30.02;12.05;;;;;;;3.24;100.00;102294.69;1763992;80;21068;-62
2020/12/19 06:17:09;;;;;;;27.60;12.55;;;;;;;3.21;100.00;102296.83;1786704;80;21063;-61
2020/12/19 06:19:36;;;;;;;24.98;12.03;;;;;;;3.20;99.96;102300.77;1783713;80;21142;-61
2020/12/19 06:22:04;;;;;;;30.95;15.78;;;;;;;3.20;100.00;102300.34;1786687;80;21551;-61
2020/12/19 06:24:48;;;;;;;34.05;14.75;;;;;;;3.22;100.00;102299.06;1786630;80;21130;-62
2020/12/19 06:27:29;;;;;;;30.68;12.85;;;;;;;3.25;100.00;102299.12;1786721;80;21150;-62
2020/12/19 06:29:56;;;;;;;27.95;13.60;;;;;;;3.28;100.00;102308.47;1786837;80;21058;-62
2020/12/19 06:32:28;;;;;;;28.65;12.63;;;;;;;3.32;100.00;102307.66;1786773;80;21142;-61
2020/12/19 06:35:11;;;;;;;28.00;13.20;;;;;;;3.35;100.00;102310.37;1786755;80;21514;-61
2020/12/19 06:37:41;;;;;;;34.18;13.75;;;;;;;3.37;99.95;102313.06;1764849;80;21058;-62
2020/12/19 06:40:18;;;;;;;32.33;13.72;;;;;;;3.41;99.90;102312.25;1755620;81;21077;-61
2020/12/19 06:43:13;;;;;;;34.85;13.95;;;;;;;3.44;99.55;102315.88;1755634;81;21026;-61
2020/12/19 06:45:41;;;;;;;29.60;13.00;;;;;;;3.46;99.38;102313.23;1755583;81;21014;-61
2020/12/19 06:48:31;;;;;;;30.85;13.75;;;;;;;3.49;99.21;102317.72;1758640;80;21375;-63
2020/12/19 06:51:02;;;;;;;31.02;13.38;;;;;;;3.48;98.95;102314.59;1773234;80;21085;-62
2020/12/19 06:53:31;;;;;;;32.67;14.13;;;;;;;3.50;98.95;102315.52;1773728;80;21161;-62
2020/12/19 06:55:59;;;;;;;30.70;14.40;;;;;;;3.48;98.83;102313.27;1773765;80;21557;-62
2020/12/19 06:58:34;;;;;;;32.48;14.55;;;;;;;3.49;98.75;102304.45;1773789;80;21195;-62
2020/12/19 07:01:26;;;;;;;29.15;13.60;;;;;;;3.50;98.67;102311.55;1773974;80;21584;-62
2020/12/19 07:03:54;;;;;;;27.62;13.30;;;;;;;3.52;98.63;102308.48;1773880;80;21149;-61
2020/12/19 07:06:22;;;;;;;26.55;12.93;;;;;;;3.55;98.67;102311.19;1773817;80;21130;-62
2020/12/19 07:08:51;;;;;;;27.15;12.85;;;;;;;3.54;98.56;102308.99;1774008;80;21193;-62
2020/12/19 07:11:39;;;;;;;26.10;12.15;;;;;;;3.58;98.39;102307.27;1774050;80;22300;-61
2020/12/19 07:14:13;;;;;;;27.95;12.90;;;;;;;3.59;98.20;102307.73;1773963;80;21880;-62
2020/12/19 07:16:52;;;;;;;30.68;12.13;;;;;;;3.60;98.00;102307.31;1774041;80;21592;-62
2020/12/19 07:19:27;;;;;;;24.72;12.53;;;;;;;3.60;97.84;102310.84;1773811;80;21089;-62
2020/12/19 07:21:56;;;;;;;25.35;11.83;;;;;;;3.62;97.69;102315.73;1774020;80;21145;-61
2020/12/19 07:24:24;;;;;;;25.55;11.90;;;;;;;3.66;97.47;102316.29;1773972;80;21109;-63
2020/12/19 07:26:53;;;;;;;24.87;11.35;;;;;;;3.68;97.14;102314.97;1773784;80;21262;-61
2020/12/19 07:29:23;;;;;;;20.92;10.03;;;;;;;3.69;96.80;102310.12;1773835;80;21179;-63
2020/12/19 07:31:57;;;;;;;22.20;9.95;;;;;;;3.72;96.58;102312.83;1773926;80;21161;-61
2020/12/19 07:34:24;;;;;;;25.97;11.48;;;;;;;3.71;96.06;102311.05;1773840;80;21148;-61
2020/12/19 07:36:54;;;;;;;23.67;11.35;;;;;;;3.70;95.90;102310.17;1786384;79;21193;-61
2020/12/19 07:39:23;;;;;;;23.90;10.30;;;;;;;3.70;95.86;102304.86;1774424;80;22535;-62
2020/12/19 07:42:09;;;;;;;23.55;11.40;;;;;;;3.72;95.77;102309.77;1797666;79;21113;-62
2020/12/19 07:44:38;;;;;;;22.82;11.05;;;;;;;3.77;95.79;102303.64;1786865;78;21109;-63
2020/12/19 07:47:08;;;;;;;23.62;10.60;;;;;;;3.84;95.62;102306.86;1797227;78;21602;-62
2020/12/19 07:49:50;;;;;;;22.52;10.05;;;;;;;3.86;95.37;102308.68;1770217;79;21070;-62
2020/12/19 07:52:25;;;;;;;24.63;10.75;;;;;;;3.91;95.02;102299.48;1794105;78;21913;-62
2020/12/19 07:55:00;;;;;;;22.17;10.18;;;;;;;3.95;94.60;102302.64;1805056;77;21549;-62
2020/12/19 07:57:30;;;;;;;27.67;11.20;;;;;;;3.97;94.21;102295.60;1816130;77;21054;-62
2020/12/19 07:59:58;;;;;;;22.52;10.35;;;;;;;4.01;94.22;102292.13;1793703;78;21058;-61
2020/12/19 08:02:26;;;;;;;29.77;11.30;;;;;;;4.11;94.05;102296.28;1774893;79;21167;-62
2020/12/19 08:04:57;;;;;;;25.90;11.55;;;;;;;4.21;93.86;102292.02;1760076;78;21221;-61
2020/12/19 08:07:31;;;;;;;32.53;13.70;;;;;;;4.29;93.49;102299.22;1754854;79;21138;-62
2020/12/19 08:10:09;;;;;;;28.40;12.10;;;;;;;4.36;92.62;102295.35;1750873;79;21177;-62
2020/12/19 08:12:39;;;;;;;38.80;14.68;;;;;;;4.40;91.99;102298.51;1803918;78;21136;-62
2020/12/19 08:15:10;;;;;;;31.70;12.23;;;;;;;4.43;91.81;102293.23;1794589;78;21105;-61
2020/12/19 08:18:00;;;;;;;28.23;10.95;;;;;;;4.50;91.47;102299.55;1786940;79;22404;-63
2020/12/19 08:20:35;;;;;;;21.33;9.78;;;;;;;4.57;90.38;102292.12;1801828;78;21077;-61
2020/12/19 08:23:09;;;;;;;18.48;9.53;;;;;;;4.62;89.30;102294.84;1790170;78;21165;-61
2020/12/19 08:25:37;;;;;;;17.63;8.67;;;;;;;4.65;89.05;102293.56;1804225;78;21154;-61
2020/12/19 08:28:20;;;;;;;17.07;8.55;;;;;;;4.70;88.91;102294.52;1784335;78;21315;-62
2020/12/19 08:30:51;;;;;;;18.20;8.38;;;;;;;4.79;88.51;102298.65;1790225;78;21310;-62
2020/12/19 08:33:20;;;;;;;23.05;8.90;;;;;;;4.86;87.79;102298.27;1794676;78;21150;-62
2020/12/19 08:35:48;;;;;;;31.77;10.48;;;;;;;4.91;87.41;102301.91;1805083;78;21070;-61
2020/12/19 08:38:23;;;;;;;21.07;9.35;;;;;;;4.94;87.25;102300.62;1794419;78;21098;-62
2020/12/19 08:40:53;;;;;;;23.00;9.73;;;;;;;4.96;87.10;102291.31;1783569;79;21122;-61
2020/12/19 08:43:40;;;;;;;22.67;9.95;;;;;;;4.94;86.91;102297.05;1800780;78;21375;-61
2020/12/19 08:46:16;;;;;;;22.55;10.25;;;;;;;4.94;87.32;102294.39;1791809;78;21130;-62
2020/12/19 08:48:47;;;;;;;22.93;10.48;;;;;;;4.94;87.42;102294.39;1796899;78;21587;-60
2020/12/19 08:51:15;;;;;;;20.57;9.95;;;;;;;4.92;87.05;102290.82;1776279;78;21118;-61
2020/12/19 08:53:45;;;;;;;17.77;9.43;;;;;;;4.87;86.67;102296.09;1770379;78;21094;-62
2020/12/19 08:56:18;;;;;;;20.97;11.40;;;;;;;4.84;86.00;102285.40;1776128;78;21751;-62
2020/12/19 08:58:52;;;;;;;20.00;9.95;;;;;;;4.81;85.84;102291.58;1777763;80;21094;-62
2020/12/19 09:01:20;;;;;;;19.27;9.67;;;;;;;4.82;85.98;102284.48;1777917;78;21177;-61
2020/12/19 09:03:48;;;;;;;21.48;10.15;;;;;;;4.85;85.63;102277.46;1785179;78;21126;-62
2020/12/19 09:06:17;;;;;;;23.85;10.30;;;;;;;4.88;85.42;102275.30;1768875;78;21086;-62
2020/12/19 09:08:46;;;;;;;19.37;9.85;;;;;;;4.92;85.21;102276.20;1787185;78;21209;-62
2020/12/19 09:11:31;;;;;;;17.57;9.20;;;;;;;4.96;84.59;102268.72;1787579;78;21593;-61
2020/12/19 09:14:08;;;;;;;17.85;9.45;;;;;;;4.93;83.84;102266.94;1796356;78;21157;-60
2020/12/19 09:16:48;;;;;;;15.83;8.83;;;;;;;4.87;83.74;102268.20;1770202;78;21062;-62
2020/12/19 09:19:17;;;;;;;19.82;9.43;;;;;;;4.86;83.69;102265.95;1798125;78;21474;-61
2020/12/19 09:21:59;;;;;;;20.17;10.38;;;;;;;4.91;83.99;102267.77;1785386;78;21191;-62
2020/12/19 09:24:27;;;;;;;22.07;10.55;;;;;;;4.98;84.28;102267.00;1781186;78;21130;-61
2020/12/19 09:26:57;;;;;;;19.60;10.05;;;;;;;4.99;83.60;102270.12;1780117;78;21150;-61
2020/12/19 09:29:25;;;;;;;25.05;10.90;;;;;;;4.98;83.07;102263.02;1791669;78;21503;-62
2020/12/19 09:31:57;;;;;;;21.27;11.05;;;;;;;5.00;83.05;102266.12;1789811;78;21146;-61
2020/12/19 09:34:28;;;;;;;20.68;10.35;;;;;;;5.04;83.23;102261.75;1774164;78;21373;-62
2020/12/19 09:36:56;;;;;;;19.90;10.55;;;;;;;5.09;82.89;102266.69;1781337;78;21090;-63
2020/12/19 09:39:24;;;;;;;18.48;9.35;;;;;;;5.04;82.04;102260.42;1767195;80;21200;-61
2020/12/19 09:41:55;;;;;;;17.30;9.33;;;;;;;5.02;82.01;102254.20;1777944;80;21181;-62
2020/12/19 09:44:23;;;;;;;17.17;9.45;;;;;;;5.01;82.51;102251.09;1780323;78;21134;-62
2020/12/19 09:46:52;;;;;;;18.42;9.78;;;;;;;5.03;82.40;102249.34;1747338;81;21232;-61
2020/12/19 09:49:22;;;;;;;19.62;10.05;;;;;;;5.06;82.65;102248.03;1791105;77;21532;-63
2020/12/19 09:51:51;;;;;;;18.67;9.10;;;;;;;5.14;82.87;102255.66;1799698;78;21067;-61
2020/12/19 09:54:21;;;;;;;14.50;7.95;;;;;;;5.19;82.11;102248.16;1805212;78;21063;-62
2020/12/19 09:56:53;;;;;;;15.98;8.33;;;;;;;5.19;81.62;102248.16;1770859;78;21134;-62
2020/12/19 09:59:25;;;;;;;16.82;8.90;;;;;;;5.15;81.18;102244.14;1807298;77;21997;-62
2020/12/19 10:01:54;;;;;;;17.67;9.30;;;;;;;5.10;81.36;102237.89;1801287;77;21097;-62
2020/12/19 10:04:23;;;;;;;18.87;9.20;;;;;;;5.06;81.88;102238.73;1793281;79;21158;-62
2020/12/19 10:06:55;;;;;;;24.72;11.05;;;;;;;5.04;82.52;102241.81;1799254;77;21177;-62
2020/12/19 10:09:26;;;;;;;18.73;9.70;;;;;;;5.04;82.87;102243.14;1797342;78;21101;-63
2020/12/19 10:11:57;;;;;;;18.42;9.58;;;;;;;5.05;82.88;102235.62;1790296;79;21203;-62
2020/12/19 10:14:34;;;;;;;18.67;9.58;;;;;;;5.06;82.53;102236.50;1806515;78;21126;-61
2020/12/19 10:17:03;;;;;;;19.15;9.63;;;;;;;5.01;82.38;102235.14;1793988;78;21130;-61
2020/12/19 10:19:33;;;;;;;18.23;9.93;;;;;;;4.98;82.53;102232.45;1799420;78;21022;-62
2020/12/19 10:22:00;;;;;;;24.00;11.33;;;;;;;4.98;82.83;102232.45;1809672;77;21110;-62
2020/12/19 10:24:29;;;;;;;20.37;10.72;;;;;;;5.02;83.06;102232.93;1798252;78;21435;-62
2020/12/19 10:26:58;;;;;;;18.00;10.10;;;;;;;5.04;83.34;102227.61;1810743;77;21101;-61
2020/12/19 10:29:27;;;;;;;20.23;9.98;;;;;;;5.05;83.43;102232.97;1789409;78;21185;-61
2020/12/19 10:31:58;;;;;;;18.57;9.38;;;;;;;5.04;83.48;102225.86;1806449;78;21159;-60
2020/12/19 10:34:25;;;;;;;19.07;10.15;;;;;;;5.03;83.17;102228.06;1785090;80;21114;-61
2020/12/19 10:36:54;;;;;;;17.60;9.70;;;;;;;5.02;83.32;102227.16;1767623;80;21366;-61
2020/12/19 10:39:22;;;;;;;17.95;9.83;;;;;;;5.05;83.58;102220.09;1791941;78;21174;-62
2020/12/19 10:41:56;;;;;;;18.15;9.48;;;;;;;5.09;83.82;102218.82;1785515;78;21157;-61
2020/12/19 10:44:27;;;;;;;18.40;8.80;;;;;;;5.12;83.49;102220.19;1781306;79;46853;-61
2020/12/19 10:46:58;;;;;;;16.87;9.50;;;;;;;5.17;83.57;102218.91;1772098;80;21489;-61
2020/12/19 10:49:28;;;;;;;15.95;8.85;;;;;;;5.18;83.10;102223.78;1792431;77;21360;-61
2020/12/19 10:51:56;;;;;;;17.17;9.65;;;;;;;5.16;82.96;102219.34;1801532;78;21117;-61
2020/12/19 10:54:24;;;;;;;16.27;8.63;;;;;;;5.14;82.80;102225.53;1815180;78;21126;-62
2020/12/19 10:56:56;;;;;;;18.82;10.25;;;;;;;5.10;83.03;102215.74;1807532;78;21137;-61
2020/12/19 10:59:23;;;;;;;16.97;9.15;;;;;;;5.10;83.10;102219.28;1808500;78;21543;-61
2020/12/19 11:01:52;;;;;;;23.02;10.15;;;;;;;5.09;83.32;102222.81;1830164;77;21399;-61
2020/12/19 11:04:20;;;;;;;17.48;9.03;;;;;;;5.08;82.98;102215.71;1798849;78;21092;-62
2020/12/19 11:06:49;;;;;;;15.72;8.68;;;;;;;5.05;83.14;102213.02;1813888;77;21507;-61
2020/12/19 11:09:17;;;;;;;15.15;8.28;;;;;;;5.02;83.07;102205.02;1806809;78;21109;-62
2020/12/19 11:11:55;;;;;;;13.48;7.62;;;;;;;4.99;83.35;102200.55;1804312;77;21041;-62
2020/12/19 11:14:25;;;;;;;19.73;9.13;;;;;;;4.98;83.36;102204.53;1789543;78;22349;-62
2020/12/19 11:16:56;;;;;;;15.23;8.23;;;;;;;4.95;83.46;102208.45;1788072;78;21109;-61
2020/12/19 11:19:25;;;;;;;18.77;9.30;;;;;;;4.94;83.72;102207.58;1776085;80;21560;-62
2020/12/19 11:21:55;;;;;;;18.20;10.23;;;;;;;4.96;84.10;102204.92;1804675;78;21131;-61
2020/12/19 11:24:24;;;;;;;27.82;13.22;;;;;;;4.98;84.49;102205.86;1807112;78;21496;-62
2020/12/19 11:26:53;;;;;;;27.55;14.83;;;;;;;4.96;84.97;102204.92;1811400;77;21625;-62